Weather at Cozumel International Airport

Public forecast

Using degrees Celsius for public forecast. Weather courtesy of forecast.io.

Current aviation weather report (METAR) for Cozumel International Airport

Retrieved 2021/04/20 18:43 UTC (22 minutes ago):

MMCZ 201843Z 10005KT 8SM BKN015 31/24 A2991 RMK 8/100 MDT CU CB/NW

Aviation forecast (TAF) for Cozumel International Airport

Retrieved 2021/04/20 18:46 UTC (19 minutes ago):

TAF MMCZ 201639Z 2018/2124 15010KT P6SM VC RA BKN015CB TEMPO 2018/2021 5SM -RA FM202200 15012KT P6SM SCT015 SCT250 FM211200 14005KT P6SM SCT015 TEMPO 2118/2121 BKN015